createdAt,value
2023-04-16T00:01:41.259Z,99.90
2023-04-16T00:04:08.671Z,99.90
2023-04-16T00:06:35.758Z,99.90
2023-04-16T00:09:02.629Z,99.90
2023-04-16T00:11:29.499Z,99.90
2023-04-16T00:13:56.477Z,99.90
2023-04-16T00:16:23.444Z,99.90
2023-04-16T00:18:51.435Z,99.90
2023-04-16T00:21:18.423Z,99.90
2023-04-16T00:23:45.366Z,99.90
2023-04-16T00:26:12.395Z,99.90
2023-04-16T00:28:39.294Z,99.90
2023-04-16T00:31:06.210Z,99.90
2023-04-16T00:33:33.266Z,99.90
2023-04-16T00:36:00.181Z,99.90
2023-04-16T00:38:30.333Z,99.90
2023-04-16T00:41:00.279Z,99.90
2023-04-16T00:43:27.576Z,99.90
2023-04-16T00:45:57.316Z,99.90
2023-04-16T00:48:27.662Z,99.90
2023-04-16T00:50:56.060Z,99.90
2023-04-16T00:53:25.843Z,99.90
2023-04-16T00:55:56.005Z,99.90
2023-04-16T00:58:24.116Z,99.90
2023-04-16T01:00:51.230Z,99.90
2023-04-16T01:03:19.313Z,99.90
2023-04-16T01:05:49.152Z,99.90
2023-04-16T01:08:21.488Z,99.90
2023-04-16T01:10:48.388Z,99.90
2023-04-16T01:13:16.336Z,99.90
2023-04-16T01:15:43.255Z,99.90
2023-04-16T01:18:19.225Z,99.90
2023-04-16T01:20:48.323Z,99.90
2023-04-16T01:23:18.369Z,99.90
2023-04-16T01:25:47.124Z,99.90
2023-04-16T01:28:14.392Z,99.90
2023-04-16T01:30:41.476Z,99.90
2023-04-16T01:33:12.754Z,99.90
2023-04-16T01:35:41.930Z,99.90
2023-04-16T01:38:10.520Z,99.90
2023-04-16T01:40:38.375Z,99.90
2023-04-16T01:43:05.747Z,99.90
2023-04-16T01:45:35.155Z,99.90
2023-04-16T01:48:04.902Z,99.90
2023-04-16T01:50:32.797Z,99.90
2023-04-16T01:52:59.695Z,99.90
2023-04-16T01:55:26.830Z,99.90
2023-04-16T01:57:53.681Z,99.90
2023-04-16T02:00:20.717Z,99.90
2023-04-16T02:02:49.307Z,99.90
2023-04-16T02:05:16.719Z,99.90
2023-04-16T02:07:43.712Z,99.90
2023-04-16T02:10:10.767Z,99.90
2023-04-16T02:12:37.822Z,99.90
2023-04-16T02:15:05.982Z,99.90
2023-04-16T02:17:32.975Z,99.90
2023-04-16T02:19:59.869Z,99.90
2023-04-16T02:22:27.815Z,99.90
2023-04-16T02:24:54.778Z,99.90
2023-04-16T02:27:21.703Z,99.90
2023-04-16T02:29:48.527Z,99.90
2023-04-16T02:32:15.509Z,99.90
2023-04-16T02:34:43.247Z,99.90
2023-04-16T02:37:10.280Z,99.90
2023-04-16T02:39:37.177Z,99.90
2023-04-16T02:42:04.097Z,99.90
2023-04-16T02:44:31.065Z,99.90
2023-04-16T02:46:57.987Z,99.90
2023-04-16T02:49:24.920Z,99.90
2023-04-16T02:51:51.910Z,99.90
2023-04-16T02:54:18.988Z,99.90
2023-04-16T02:56:45.876Z,99.90
2023-04-16T02:59:12.857Z,99.90
2023-04-16T03:01:39.868Z,99.90
2023-04-16T03:04:06.933Z,99.90
2023-04-16T03:06:33.873Z,99.90
2023-04-16T03:09:00.846Z,99.90
2023-04-16T03:11:28.846Z,99.90
2023-04-16T03:13:56.513Z,99.90
2023-04-16T03:16:23.542Z,99.90
2023-04-16T03:18:52.599Z,99.90
2023-04-16T03:21:19.581Z,99.90
2023-04-16T03:23:47.712Z,99.90
2023-04-16T03:26:14.700Z,99.90
2023-04-16T03:28:42.603Z,99.90
2023-04-16T03:31:09.503Z,99.90
2023-04-16T03:33:36.485Z,99.90
2023-04-16T03:36:03.447Z,99.90
2023-04-16T03:38:30.523Z,99.90
2023-04-16T03:40:59.402Z,99.90
2023-04-16T03:43:27.290Z,99.90
2023-04-16T03:45:54.210Z,99.90
2023-04-16T03:48:21.175Z,99.90
2023-04-16T03:50:49.176Z,99.90
2023-04-16T03:53:16.367Z,99.90
2023-04-16T03:55:43.419Z,99.90
2023-04-16T03:58:11.309Z,99.90
2023-04-16T04:00:42.833Z,99.90
2023-04-16T04:03:11.540Z,99.90
2023-04-16T04:05:42.621Z,99.90
2023-04-16T04:08:10.497Z,99.90
2023-04-16T04:10:37.958Z,99.90
2023-04-16T04:13:06.842Z,99.90
2023-04-16T04:15:33.996Z,99.90
2023-04-16T04:18:00.974Z,99.90
2023-04-16T04:20:28.002Z,99.90
2023-04-16T04:22:54.834Z,99.90
2023-04-16T04:25:21.801Z,99.90
2023-04-16T04:27:49.157Z,99.90
2023-04-16T04:30:16.040Z,99.90
2023-04-16T04:32:43.193Z,99.90
2023-04-16T04:35:10.305Z,99.90
2023-04-16T04:37:37.202Z,99.90
2023-04-16T04:40:04.547Z,99.90
2023-04-16T04:42:31.680Z,99.90
2023-04-16T04:44:58.581Z,99.90
2023-04-16T04:47:25.506Z,99.90
2023-04-16T04:49:52.421Z,99.90
2023-04-16T04:52:20.390Z,99.90
2023-04-16T04:54:47.386Z,99.90
2023-04-16T04:57:14.253Z,99.90
2023-04-16T04:59:41.199Z,99.90
2023-04-16T05:02:08.093Z,99.90
2023-04-16T05:04:35.086Z,99.90
2023-04-16T05:07:02.532Z,99.90
2023-04-16T05:09:29.403Z,99.90
2023-04-16T05:11:57.513Z,99.90
2023-04-16T05:14:24.550Z,99.90
2023-04-16T05:16:51.544Z,99.90
2023-04-16T05:19:18.524Z,99.90
2023-04-16T05:21:45.515Z,99.90
2023-04-16T05:24:14.811Z,99.90
2023-04-16T05:26:41.940Z,99.90
2023-04-16T05:29:09.027Z,99.90
2023-04-16T05:31:36.293Z,99.90
2023-04-16T05:34:03.139Z,99.90
2023-04-16T05:36:30.072Z,99.90
2023-04-16T05:38:56.982Z,99.90
2023-04-16T05:41:24.030Z,99.90
2023-04-16T05:43:50.993Z,99.90
2023-04-16T05:46:17.902Z,99.90
2023-04-16T05:48:44.812Z,99.90
2023-04-16T05:51:11.723Z,99.90
2023-04-16T05:53:38.671Z,99.90
2023-04-16T05:56:07.612Z,99.90
2023-04-16T05:58:34.830Z,99.90
2023-04-16T06:01:01.917Z,99.90
2023-04-16T06:03:28.988Z,99.90
2023-04-16T06:05:55.979Z,99.90
2023-04-16T06:08:22.988Z,99.90
2023-04-16T06:10:49.994Z,99.90
2023-04-16T06:13:17.114Z,99.90
2023-04-16T06:15:44.001Z,99.90
2023-04-16T06:18:11.023Z,99.90
2023-04-16T06:20:38.075Z,99.90
2023-04-16T06:23:05.341Z,99.90
2023-04-16T06:25:32.306Z,99.90
2023-04-16T06:27:59.238Z,99.90
2023-04-16T06:30:26.323Z,99.90
2023-04-16T06:32:53.966Z,99.90
2023-04-16T06:35:20.937Z,99.90
2023-04-16T06:37:48.035Z,99.90
2023-04-16T06:40:15.455Z,99.90
2023-04-16T06:42:45.245Z,99.90
2023-04-16T06:45:13.523Z,99.90
2023-04-16T06:47:40.506Z,99.90
2023-04-16T06:50:08.156Z,99.90
2023-04-16T06:52:35.479Z,99.90
2023-04-16T06:55:02.660Z,99.90
2023-04-16T06:57:29.557Z,99.90
2023-04-16T06:59:56.678Z,99.90
2023-04-16T07:02:24.558Z,99.90
2023-04-16T07:04:52.382Z,99.90
2023-04-16T07:07:19.315Z,99.90
2023-04-16T07:09:46.213Z,99.90
2023-04-16T07:12:13.413Z,99.90
2023-04-16T07:14:41.389Z,99.90
2023-04-16T07:17:08.299Z,99.90
2023-04-16T07:19:35.815Z,99.90
2023-04-16T07:22:03.578Z,99.90
2023-04-16T07:24:30.588Z,99.90
2023-04-16T07:26:57.523Z,99.90
2023-04-16T07:29:24.492Z,99.90
2023-04-16T07:31:51.999Z,99.90
2023-04-16T07:34:18.991Z,99.90
2023-04-16T07:36:45.901Z,99.90
2023-04-16T07:39:13.154Z,99.90
2023-04-16T07:41:41.166Z,99.90
2023-04-16T07:44:08.250Z,99.90
2023-04-16T07:46:45.583Z,99.90
2023-04-16T07:49:13.672Z,99.90
2023-04-16T07:51:40.750Z,99.90
2023-04-16T07:54:07.644Z,99.90
2023-04-16T07:56:34.619Z,99.90
2023-04-16T07:59:14.380Z,99.90
2023-04-16T08:03:34.740Z,99.90
2023-04-16T08:06:01.853Z,99.90
2023-04-16T08:08:29.577Z,99.90
2023-04-16T08:10:56.729Z,99.90
2023-04-16T08:13:24.822Z,99.90
2023-04-16T08:15:51.792Z,99.90
2023-04-16T08:18:19.684Z,99.90
2023-04-16T08:20:46.715Z,99.90
2023-04-16T08:23:13.674Z,99.90
2023-04-16T08:25:40.772Z,99.90
2023-04-16T08:28:07.779Z,99.90
2023-04-16T08:30:35.038Z,99.90
2023-04-16T08:33:02.335Z,99.90
2023-04-16T08:35:29.390Z,99.90
2023-04-16T08:37:57.795Z,99.90
2023-04-16T08:40:28.754Z,99.90
2023-04-16T08:43:02.856Z,99.90
2023-04-16T08:45:34.942Z,99.90
2023-04-16T08:48:06.552Z,99.20
2023-04-16T08:50:35.550Z,99.00
2023-04-16T08:53:10.411Z,98.20
2023-04-16T08:55:49.261Z,98.10
2023-04-16T08:58:23.094Z,98.50
2023-04-16T09:00:50.957Z,98.10
2023-04-16T09:03:21.473Z,98.40
2023-04-16T09:05:50.677Z,98.20
2023-04-16T09:08:18.422Z,98.60
2023-04-16T09:10:46.325Z,98.20
2023-04-16T09:13:16.809Z,97.90
2023-04-16T09:15:44.814Z,97.50
2023-04-16T09:18:12.277Z,97.40
2023-04-16T09:20:39.940Z,97.10
2023-04-16T09:23:06.833Z,96.70
2023-04-16T09:25:35.039Z,96.20
2023-04-16T09:28:01.992Z,95.20
2023-04-16T09:30:29.000Z,95.70
2023-04-16T09:33:24.634Z,95.50
2023-04-16T09:35:54.520Z,95.90
2023-04-16T09:38:21.906Z,95.90
2023-04-16T09:41:08.049Z,96.00
2023-04-16T09:43:35.491Z,95.00
2023-04-16T09:46:08.308Z,95.50
2023-04-16T09:48:35.916Z,94.90
2023-04-16T09:51:06.647Z,94.70
2023-04-16T09:53:33.607Z,94.40
2023-04-16T09:56:07.002Z,94.20
2023-04-16T09:58:37.983Z,94.80
2023-04-16T10:01:13.153Z,94.90
2023-04-16T10:03:41.171Z,95.10
2023-04-16T10:06:22.036Z,94.90
2023-04-16T10:08:57.892Z,94.90
2023-04-16T10:11:25.759Z,95.30
2023-04-16T10:13:53.325Z,95.10
2023-04-16T10:16:22.277Z,95.50
2023-04-16T10:18:49.542Z,95.40
2023-04-16T10:21:16.934Z,94.70
2023-04-16T10:23:44.295Z,94.00
2023-04-16T10:26:11.876Z,93.40
2023-04-16T10:28:40.614Z,93.70
2023-04-16T10:31:09.665Z,93.90
2023-04-16T10:33:41.767Z,92.50
2023-04-16T10:36:24.435Z,92.70
2023-04-16T10:38:56.580Z,92.60
2023-04-16T10:41:26.792Z,91.80
2023-04-16T10:44:06.492Z,91.90
2023-04-16T10:46:41.466Z,92.10
2023-04-16T10:49:24.660Z,91.30
2023-04-16T10:52:13.813Z,91.90
2023-04-16T10:54:41.393Z,91.80
2023-04-16T10:57:19.543Z,91.50
2023-04-16T10:59:49.050Z,91.40
2023-04-16T11:02:19.423Z,91.40
2023-04-16T11:04:49.506Z,91.20
2023-04-16T11:07:34.944Z,91.10
2023-04-16T11:10:12.898Z,91.20
2023-04-16T11:12:48.952Z,91.60
2023-04-16T11:15:21.549Z,91.80
2023-04-16T11:17:51.924Z,91.60
2023-04-16T11:20:28.410Z,91.50
2023-04-16T11:22:58.055Z,91.40
2023-04-16T11:25:34.024Z,90.90
2023-04-16T11:28:02.981Z,91.00
2023-04-16T11:30:37.593Z,90.90
2023-04-16T11:33:08.317Z,90.30
2023-04-16T11:35:35.932Z,90.30
2023-04-16T11:38:02.956Z,90.30
2023-04-16T11:40:31.825Z,89.50
2023-04-16T11:43:17.939Z,90.00
2023-04-16T11:46:20.042Z,89.80
2023-04-16T11:48:56.160Z,88.90
2023-04-16T11:51:23.846Z,87.80
2023-04-16T11:53:55.003Z,88.80
2023-04-16T11:56:37.134Z,87.70
2023-04-16T11:59:18.000Z,87.80
2023-04-16T12:01:55.603Z,87.30
2023-04-16T12:04:27.082Z,87.50
2023-04-16T12:07:14.540Z,87.00
2023-04-16T12:09:43.850Z,87.90
2023-04-16T12:12:32.423Z,87.30
2023-04-16T12:15:04.800Z,87.20
2023-04-16T12:17:37.959Z,87.10
2023-04-16T12:20:15.624Z,85.90
2023-04-16T12:22:49.531Z,86.30
2023-04-16T12:25:18.340Z,86.00
2023-04-16T12:27:55.868Z,86.00
2023-04-16T12:30:26.618Z,86.40
2023-04-16T12:33:19.574Z,87.50
2023-04-16T12:35:46.986Z,88.20
2023-04-16T12:38:15.299Z,87.00
2023-04-16T12:40:42.867Z,87.70
2023-04-16T12:43:10.605Z,89.90
2023-04-16T12:45:39.527Z,90.60
2023-04-16T12:48:07.075Z,90.90
2023-04-16T12:50:34.299Z,91.30
2023-04-16T12:53:01.273Z,91.80
2023-04-16T12:55:28.351Z,92.20
2023-04-16T12:57:56.323Z,92.90
2023-04-16T13:00:23.423Z,92.70
2023-04-16T13:02:50.426Z,93.10
2023-04-16T13:05:19.054Z,93.20
2023-04-16T13:07:46.167Z,93.90
2023-04-16T13:10:13.681Z,94.30
2023-04-16T13:12:40.931Z,94.60
2023-04-16T13:15:09.291Z,94.50
2023-04-16T13:17:36.274Z,94.40
2023-04-16T13:20:03.408Z,94.40
2023-04-16T13:22:30.686Z,94.30
2023-04-16T13:24:57.746Z,94.10
2023-04-16T13:27:24.776Z,93.90
2023-04-16T13:29:51.669Z,93.50
2023-04-16T13:32:19.147Z,94.00
2023-04-16T13:34:46.236Z,93.80
2023-04-16T13:37:17.147Z,94.00
2023-04-16T13:39:46.616Z,94.10
2023-04-16T13:42:13.549Z,94.00
2023-04-16T13:44:40.980Z,94.30
2023-04-16T13:47:08.281Z,93.60
2023-04-16T13:49:36.281Z,93.60
2023-04-16T13:52:03.903Z,93.60
2023-04-16T13:54:31.066Z,93.10
2023-04-16T13:56:58.024Z,92.70
2023-04-16T13:59:25.005Z,92.80
2023-04-16T14:01:52.123Z,92.50
2023-04-16T14:04:19.460Z,92.10
2023-04-16T14:06:46.465Z,92.10
2023-04-16T14:09:13.482Z,92.30
2023-04-16T14:11:40.512Z,91.80
2023-04-16T14:14:07.667Z,91.80
2023-04-16T14:16:35.067Z,91.50
2023-04-16T14:19:02.028Z,91.10
2023-04-16T14:21:31.024Z,90.90
2023-04-16T14:23:57.950Z,90.70
2023-04-16T14:26:24.916Z,90.30
2023-04-16T14:28:52.157Z,90.00
2023-04-16T14:31:19.897Z,90.20
2023-04-16T14:33:47.168Z,89.40
2023-04-16T14:36:14.274Z,87.00
2023-04-16T14:38:43.140Z,87.50
2023-04-16T14:41:12.324Z,87.20
2023-04-16T14:43:41.096Z,83.00
2023-04-16T14:46:08.214Z,79.50
2023-04-16T14:48:35.201Z,78.80
2023-04-16T14:51:02.557Z,77.40
2023-04-16T14:53:29.589Z,77.20
2023-04-16T14:55:58.806Z,77.50
2023-04-16T14:58:26.657Z,76.10
2023-04-16T15:00:53.843Z,78.30
2023-04-16T15:03:21.456Z,74.90
2023-04-16T15:05:54.711Z,75.50
2023-04-16T15:08:23.221Z,73.70
2023-04-16T15:10:51.500Z,74.20
2023-04-16T15:13:19.183Z,74.60
2023-04-16T15:15:46.324Z,75.40
2023-04-16T15:18:13.457Z,76.40
2023-04-16T15:20:40.369Z,76.30
2023-04-16T15:23:07.601Z,76.40
2023-04-16T15:25:34.630Z,75.90
2023-04-16T15:28:02.577Z,73.80
2023-04-16T15:30:30.910Z,73.90
2023-04-16T15:32:57.935Z,74.70
2023-04-16T15:35:25.013Z,74.60
2023-04-16T15:37:52.695Z,75.00
2023-04-16T15:40:20.485Z,75.70
2023-04-16T15:42:48.084Z,77.00
2023-04-16T15:45:15.013Z,76.00
2023-04-16T15:47:43.120Z,72.70
2023-04-16T15:50:10.585Z,72.10
2023-04-16T15:52:38.509Z,70.20
2023-04-16T15:55:06.114Z,71.00
2023-04-16T15:57:33.034Z,71.50
2023-04-16T16:00:06.874Z,72.50
2023-04-16T16:02:34.639Z,71.60
2023-04-16T16:05:02.001Z,72.20
2023-04-16T16:07:28.938Z,70.80
2023-04-16T16:09:56.194Z,71.50
2023-04-16T16:12:23.358Z,71.00
2023-04-16T16:14:50.207Z,71.50
2023-04-16T16:17:18.251Z,71.90
2023-04-16T16:19:46.476Z,73.10
2023-04-16T16:22:13.841Z,74.10
2023-04-16T16:24:40.853Z,74.90
2023-04-16T16:27:07.741Z,75.10
2023-04-16T16:29:34.711Z,75.40
2023-04-16T16:32:01.779Z,75.00
2023-04-16T16:34:28.671Z,74.50
2023-04-16T16:36:55.653Z,74.60
2023-04-16T16:39:24.404Z,75.30
2023-04-16T16:41:54.493Z,76.30
2023-04-16T16:44:22.331Z,76.60
2023-04-16T16:46:50.759Z,77.40
2023-04-16T16:49:18.053Z,78.20
2023-04-16T16:51:48.741Z,78.70
2023-04-16T16:54:15.814Z,78.90
2023-04-16T16:56:42.793Z,79.50
2023-04-16T16:59:10.072Z,79.90
2023-04-16T17:01:37.721Z,81.00
2023-04-16T17:04:05.221Z,81.60
2023-04-16T17:06:33.180Z,83.00
2023-04-16T17:09:00.827Z,84.90
2023-04-16T17:11:29.138Z,88.10
2023-04-16T17:13:56.788Z,90.30
2023-04-16T17:16:24.232Z,91.20
2023-04-16T17:18:51.266Z,91.90
2023-04-16T17:21:18.171Z,92.50
2023-04-16T17:23:45.108Z,93.50
2023-04-16T17:26:12.129Z,94.80
2023-04-16T17:28:39.218Z,96.70
2023-04-16T17:31:08.349Z,98.00
2023-04-16T17:33:35.738Z,99.60
2023-04-16T17:36:02.734Z,99.90
2023-04-16T17:38:29.720Z,99.90
2023-04-16T17:40:57.863Z,99.90
2023-04-16T17:43:24.857Z,99.90
2023-04-16T17:45:51.895Z,99.90
2023-04-16T17:48:18.860Z,99.90
2023-04-16T17:50:45.778Z,99.90
2023-04-16T17:53:12.774Z,99.90
2023-04-16T17:55:39.750Z,99.90
2023-04-16T17:58:06.636Z,99.90
2023-04-16T18:00:33.613Z,99.90
2023-04-16T18:03:00.609Z,99.90
2023-04-16T18:05:27.741Z,99.90
2023-04-16T18:07:55.679Z,99.90
2023-04-16T18:10:22.879Z,99.90
2023-04-16T18:12:49.850Z,99.90
2023-04-16T18:15:16.948Z,99.90
2023-04-16T18:17:43.938Z,99.90
2023-04-16T18:20:12.417Z,99.90
2023-04-16T18:22:39.350Z,99.90
2023-04-16T18:25:07.170Z,99.90
2023-04-16T18:27:34.216Z,99.90
2023-04-16T18:30:01.191Z,99.90
2023-04-16T18:32:31.334Z,99.90
2023-04-16T18:34:58.365Z,99.90
2023-04-16T18:37:25.335Z,99.90
2023-04-16T18:39:52.266Z,99.90
2023-04-16T18:42:19.268Z,99.90
2023-04-16T18:44:54.039Z,99.90
2023-04-16T18:47:21.215Z,99.90
2023-04-16T18:49:48.149Z,99.90
2023-04-16T18:52:16.124Z,99.90
2023-04-16T18:54:43.537Z,99.90
2023-04-16T18:57:10.783Z,99.90
2023-04-16T18:59:37.704Z,99.90
2023-04-16T19:02:04.741Z,99.90
2023-04-16T19:04:31.844Z,99.90
2023-04-16T19:06:59.007Z,99.90
2023-04-16T19:09:27.056Z,99.90
2023-04-16T19:11:54.105Z,99.90
2023-04-16T19:14:22.014Z,99.90
2023-04-16T19:16:48.945Z,99.90
2023-04-16T19:19:17.657Z,99.90
2023-04-16T19:21:44.654Z,99.90
2023-04-16T19:24:11.656Z,99.90
2023-04-16T19:26:38.540Z,99.90
2023-04-16T19:29:05.474Z,99.90
2023-04-16T19:31:32.602Z,99.90
2023-04-16T19:33:59.514Z,99.90
2023-04-16T19:36:27.530Z,99.90
2023-04-16T19:38:55.587Z,99.90
2023-04-16T19:41:23.655Z,99.90
2023-04-16T19:43:50.579Z,99.90
2023-04-16T19:46:17.828Z,99.90
2023-04-16T19:48:44.939Z,99.90
2023-04-16T19:51:11.826Z,99.90
2023-04-16T19:53:38.888Z,99.90
2023-04-16T19:56:06.227Z,99.90
2023-04-16T19:58:33.257Z,99.90
2023-04-16T20:01:00.613Z,99.90
2023-04-16T20:03:28.630Z,99.90
2023-04-16T20:05:55.584Z,99.90
2023-04-16T20:08:22.667Z,99.90
2023-04-16T20:10:53.130Z,99.90
2023-04-16T20:13:20.219Z,99.90
2023-04-16T20:15:53.798Z,99.90
2023-04-16T20:18:20.978Z,99.90
2023-04-16T20:20:48.044Z,99.90
2023-04-16T20:23:15.358Z,99.90
2023-04-16T20:25:43.505Z,99.90
2023-04-16T20:28:10.591Z,99.90
2023-04-16T20:30:39.250Z,99.90
2023-04-16T20:33:08.185Z,99.90
2023-04-16T20:35:35.502Z,99.90
2023-04-16T20:38:02.370Z,99.90
2023-04-16T20:40:30.131Z,99.90
2023-04-16T20:43:01.088Z,99.90
2023-04-16T20:45:32.291Z,99.90
2023-04-16T20:47:59.698Z,99.90
2023-04-16T20:50:27.718Z,99.90
2023-04-16T20:52:54.711Z,99.90
2023-04-16T20:55:21.878Z,99.90
2023-04-16T20:57:48.830Z,99.90
2023-04-16T21:00:16.791Z,99.90
2023-04-16T21:02:43.899Z,99.90
2023-04-16T21:05:16.181Z,99.90
2023-04-16T21:07:43.447Z,99.90
2023-04-16T21:10:11.121Z,99.90
2023-04-16T21:12:39.054Z,99.90
2023-04-16T21:15:07.172Z,99.90
2023-04-16T21:17:34.191Z,99.90
2023-04-16T21:20:01.198Z,99.90
2023-04-16T21:22:29.210Z,99.90
2023-04-16T21:24:56.060Z,99.90
2023-04-16T21:27:23.985Z,99.90
2023-04-16T21:29:51.714Z,99.90
2023-04-16T21:32:19.596Z,99.90
2023-04-16T21:34:46.653Z,99.90
2023-04-16T21:37:13.607Z,99.90
2023-04-16T21:39:41.446Z,99.90
2023-04-16T21:42:08.414Z,99.90
2023-04-16T21:44:36.324Z,99.90
2023-04-16T21:47:03.384Z,99.90
2023-04-16T21:49:30.346Z,99.90
2023-04-16T21:51:59.116Z,99.90
2023-04-16T21:54:26.064Z,99.90
2023-04-16T21:56:52.931Z,99.90
2023-04-16T21:59:19.834Z,99.90
2023-04-16T22:01:46.783Z,99.90
2023-04-16T22:04:14.009Z,99.90
2023-04-16T22:06:40.943Z,99.90
2023-04-16T22:09:07.859Z,99.90
2023-04-16T22:11:34.811Z,99.90
2023-04-16T22:14:02.928Z,99.90
2023-04-16T22:16:29.870Z,99.90
2023-04-16T22:18:57.329Z,99.90
2023-04-16T22:21:24.782Z,99.90
2023-04-16T22:23:52.728Z,99.90
2023-04-16T22:26:19.568Z,99.90
2023-04-16T22:28:47.514Z,99.90
2023-04-16T22:31:14.375Z,99.90
2023-04-16T22:33:41.220Z,99.90
2023-04-16T22:36:08.565Z,99.90
2023-04-16T22:38:35.593Z,99.90
2023-04-16T22:41:02.463Z,99.90
2023-04-16T22:43:30.534Z,99.90
2023-04-16T22:46:06.965Z,99.90
2023-04-16T22:48:36.197Z,99.90
2023-04-16T22:51:12.706Z,99.90
2023-04-16T22:53:39.638Z,99.90
2023-04-16T22:56:07.061Z,99.90
2023-04-16T22:58:34.056Z,99.90
2023-04-16T23:01:01.517Z,99.90
2023-04-16T23:03:28.657Z,99.90
2023-04-16T23:05:55.813Z,99.90
2023-04-16T23:08:22.728Z,99.90
2023-04-16T23:10:49.675Z,99.90
2023-04-16T23:13:16.625Z,99.90
2023-04-16T23:15:43.683Z,99.90
2023-04-16T23:18:10.752Z,99.90
2023-04-16T23:20:37.666Z,99.90
2023-04-16T23:23:05.614Z,99.90
2023-04-16T23:25:32.631Z,99.90
2023-04-16T23:27:59.506Z,99.90
2023-04-16T23:30:26.491Z,99.90
2023-04-16T23:32:53.467Z,99.90
2023-04-16T23:35:22.750Z,99.90
2023-04-16T23:37:50.086Z,99.90
2023-04-16T23:40:17.394Z,99.90
2023-04-16T23:42:44.368Z,99.90
2023-04-16T23:45:12.016Z,99.90
2023-04-16T23:47:39.123Z,99.90
2023-04-16T23:50:07.091Z,99.90
2023-04-16T23:52:33.977Z,99.90
2023-04-16T23:55:00.941Z,99.90
2023-04-16T23:57:27.905Z,99.90
2023-04-16T23:59:54.818Z,99.90
